sensor_id;sensor_type;location;lat;lon;timestamp;pressure;altitude;pressure_sealevel;temperature;humidity
6028;BME280;3042;43.194;27.646;2023-06-14T00:01:00;101119.19;;;22.23;100.00
6028;BME280;3042;43.194;27.646;2023-06-14T00:03:28;101178.94;;;22.64;100.00
6028;BME280;3042;43.194;27.646;2023-06-14T00:05:57;101176.34;;;22.70;100.00
6028;BME280;3042;43.194;27.646;2023-06-14T00:08:24;101171.97;;;22.72;100.00
6028;BME280;3042;43.194;27.646;2023-06-14T00:10:53;100960.22;;;21.48;100.00
6028;BME280;3042;43.194;27.646;2023-06-14T00:13:20;101128.03;;;22.51;100.00
6028;BME280;3042;43.194;27.646;2023-06-14T00:15:47;101186.00;;;22.71;100.00
6028;BME280;3042;43.194;27.646;2023-06-14T00:18:14;101179.88;;;22.73;100.00
6028;BME280;3042;43.194;27.646;2023-06-14T00:20:42;101185.13;;;22.67;100.00
6028;BME280;3042;43.194;27.646;2023-06-14T00:23:09;101186.00;;;22.71;100.00
6028;BME280;3042;43.194;27.646;2023-06-14T00:25:36;101182.47;;;22.66;100.00
6028;BME280;3042;43.194;27.646;2023-06-14T00:28:05;101182.47;;;22.66;100.00
6028;BME280;3042;43.194;27.646;2023-06-14T00:30:32;101187.72;;;22.57;100.00
6028;BME280;3042;43.194;27.646;2023-06-14T00:32:59;101184.22;;;22.64;100.00
6028;BME280;3042;43.194;27.646;2023-06-14T00:35:26;101080.50;;;21.94;100.00
6028;BME280;3042;43.194;27.646;2023-06-14T00:37:53;101120.97;;;22.30;100.00
6028;BME280;3042;43.194;27.646;2023-06-14T00:40:21;101191.25;;;22.71;100.00
6028;BME280;3042;43.194;27.646;2023-06-14T00:42:48;101190.41;;;22.69;100.00
6028;BME280;3042;43.194;27.646;2023-06-14T00:45:17;101182.50;;;22.72;100.00
6028;BME280;3042;43.194;27.646;2023-06-14T00:47:45;101184.25;;;22.67;100.00
6028;BME280;3042;43.194;27.646;2023-06-14T00:50:13;101174.56;;;22.70;100.00
6028;BME280;3042;43.194;27.646;2023-06-14T00:52:40;101176.34;;;22.67;100.00
6028;BME280;3042;43.194;27.646;2023-06-14T00:55:08;101178.97;;;22.58;100.00
6028;BME280;3042;43.194;27.646;2023-06-14T00:57:35;101154.34;;;22.34;100.00
6028;BME280;3042;43.194;27.646;2023-06-14T01:13:35;101180.69;;;22.43;100.00
6028;BME280;3042;43.194;27.646;2023-06-14T01:16:04;101123.50;;;22.14;100.00
6028;BME280;3042;43.194;27.646;2023-06-14T01:18:32;101173.69;;;22.53;100.00
6028;BME280;3042;43.194;27.646;2023-06-14T01:20:59;101179.84;;;22.58;100.00
6028;BME280;3042;43.194;27.646;2023-06-14T01:23:32;101175.47;;;22.65;100.00
6028;BME280;3042;43.194;27.646;2023-06-14T01:26:18;101166.66;;;22.61;100.00
6028;BME280;3042;43.194;27.646;2023-06-14T01:28:46;101172.78;;;22.49;100.00
6028;BME280;3042;43.194;27.646;2023-06-14T01:31:17;101174.50;;;22.38;100.00
6028;BME280;3042;43.194;27.646;2023-06-14T01:33:45;101175.41;;;22.49;100.00
6028;BME280;3042;43.194;27.646;2023-06-14T01:36:13;101177.19;;;22.46;100.00
6028;BME280;3042;43.194;27.646;2023-06-14T01:38:44;101183.28;;;22.36;100.00
6028;BME280;3042;43.194;27.646;2023-06-14T01:41:11;101185.03;;;22.30;100.00
6028;BME280;3042;43.194;27.646;2023-06-14T01:43:39;101178.88;;;22.30;100.00
6028;BME280;3042;43.194;27.646;2023-06-14T01:46:08;101135.81;;;22.12;100.00
6028;BME280;3042;43.194;27.646;2023-06-14T01:48:36;101184.16;;;22.30;100.00
6028;BME280;3042;43.194;27.646;2023-06-14T01:51:04;101013.59;;;21.31;100.00
6028;BME280;3042;43.194;27.646;2023-06-14T01:53:31;101176.25;;;22.33;100.00
6028;BME280;3042;43.194;27.646;2023-06-14T01:55:59;101175.41;;;22.34;100.00
6028;BME280;3042;43.194;27.646;2023-06-14T01:58:27;101076.88;;;21.61;100.00
6028;BME280;3042;43.194;27.646;2023-06-14T02:00:54;101188.50;;;22.23;100.00
6028;BME280;3042;43.194;27.646;2023-06-14T02:03:22;101185.84;;;22.12;100.00
6028;BME280;3042;43.194;27.646;2023-06-14T02:05:50;101182.41;;;22.27;100.00
6028;BME280;3042;43.194;27.646;2023-06-14T02:08:18;101134.91;;;22.04;100.00
6028;BME280;3042;43.194;27.646;2023-06-14T02:10:45;101180.63;;;22.28;100.00
6028;BME280;3042;43.194;27.646;2023-06-14T02:13:13;101181.53;;;22.33;100.00
6028;BME280;3042;43.194;27.646;2023-06-14T02:15:40;101183.25;;;22.28;100.00
6028;BME280;3042;43.194;27.646;2023-06-14T02:18:10;101178.88;;;22.33;100.00
6028;BME280;3042;43.194;27.646;2023-06-14T02:20:37;101178.03;;;22.34;100.00
6028;BME280;3042;43.194;27.646;2023-06-14T02:23:04;101182.41;;;22.35;100.00
6028;BME280;3042;43.194;27.646;2023-06-14T02:25:33;101182.41;;;22.35;100.00
6028;BME280;3042;43.194;27.646;2023-06-14T02:28:00;101194.69;;;22.30;100.00
6028;BME280;3042;43.194;27.646;2023-06-14T02:30:29;101190.31;;;22.32;100.00
6028;BME280;3042;43.194;27.646;2023-06-14T02:32:56;101198.22;;;22.35;100.00
6028;BME280;3042;43.194;27.646;2023-06-14T02:35:24;101137.56;;;22.10;100.00
6028;BME280;3042;43.194;27.646;2023-06-14T02:37:52;101187.69;;;22.47;100.00
6028;BME280;3042;43.194;27.646;2023-06-14T02:40:20;101193.84;;;22.45;100.00
6028;BME280;3042;43.194;27.646;2023-06-14T02:42:47;101201.75;;;22.49;100.00
6028;BME280;3042;43.194;27.646;2023-06-14T02:45:14;101190.38;;;22.55;100.00
6028;BME280;3042;43.194;27.646;2023-06-14T02:47:43;101165.75;;;22.42;100.00
6028;BME280;3042;43.194;27.646;2023-06-14T02:50:11;101196.53;;;22.65;100.00
6028;BME280;3042;43.194;27.646;2023-06-14T02:52:38;101186.00;;;22.72;100.00
6028;BME280;3042;43.194;27.646;2023-06-14T02:55:07;101193.03;;;22.67;100.00
6028;BME280;3042;43.194;27.646;2023-06-14T02:57:35;101186.91;;;22.88;100.00
6028;BME280;3042;43.194;27.646;2023-06-14T03:00:03;101194.84;;;23.10;100.00
6028;BME280;3042;43.194;27.646;2023-06-14T03:02:30;101193.97;;;23.00;100.00
6028;BME280;3042;43.194;27.646;2023-06-14T03:04:59;101127.19;;;22.73;100.00
6028;BME280;3042;43.194;27.646;2023-06-14T03:07:28;101187.81;;;23.24;100.00
6028;BME280;3042;43.194;27.646;2023-06-14T03:09:55;101186.03;;;23.29;100.00
6028;BME280;3042;43.194;27.646;2023-06-14T03:12:22;101182.50;;;23.36;100.00
6028;BME280;3042;43.194;27.646;2023-06-14T03:14:50;101191.25;;;23.66;100.00
6028;BME280;3042;43.194;27.646;2023-06-14T03:17:17;101186.84;;;23.87;100.00
6028;BME280;3042;43.194;27.646;2023-06-14T03:19:45;101171.13;;;23.28;100.00
6028;BME280;3042;43.194;27.646;2023-06-14T03:22:13;101212.41;;;23.54;100.00
6028;BME280;3042;43.194;27.646;2023-06-14T03:24:40;101184.88;;;24.30;100.00
6028;BME280;3042;43.194;27.646;2023-06-14T03:27:08;101186.25;;;24.96;100.00
6028;BME280;3042;43.194;27.646;2023-06-14T03:29:36;101183.34;;;25.28;100.00
6028;BME280;3042;43.194;27.646;2023-06-14T03:32:03;101146.31;;;25.28;100.00
6028;BME280;3042;43.194;27.646;2023-06-14T03:34:31;101132.41;;;25.04;100.00
6028;BME280;3042;43.194;27.646;2023-06-14T03:36:58;101151.59;;;25.28;100.00
6028;BME280;3042;43.194;27.646;2023-06-14T03:39:26;101182.66;;;25.96;100.00
6028;BME280;3042;43.194;27.646;2023-06-14T03:41:53;101152.72;;;25.90;100.00
6028;BME280;3042;43.194;27.646;2023-06-14T03:44:21;101179.66;;;26.22;100.00
6028;BME280;3042;43.194;27.646;2023-06-14T03:46:48;101168.88;;;26.96;100.00
6028;BME280;3042;43.194;27.646;2023-06-14T03:49:15;101168.56;;;27.64;100.00
6028;BME280;3042;43.194;27.646;2023-06-14T03:51:42;100938.22;;;27.33;100.00
6028;BME280;3042;43.194;27.646;2023-06-14T03:54:10;101135.59;;;29.60;100.00
6028;BME280;3042;43.194;27.646;2023-06-14T03:56:39;101138.25;;;30.21;100.00
6028;BME280;3042;43.194;27.646;2023-06-14T03:59:06;100830.94;;;29.08;100.00
6028;BME280;3042;43.194;27.646;2023-06-14T04:01:35;101099.06;;;31.29;100.00
6028;BME280;3042;43.194;27.646;2023-06-14T04:04:03;101117.34;;;31.89;100.00
6028;BME280;3042;43.194;27.646;2023-06-14T04:06:30;101115.88;;;32.49;100.00
6028;BME280;3042;43.194;27.646;2023-06-14T04:08:59;101112.53;;;33.09;100.00
6028;BME280;3042;43.194;27.646;2023-06-14T04:11:29;101110.75;;;33.49;100.00
6028;BME280;3042;43.194;27.646;2023-06-14T04:13:58;101086.66;;;33.28;100.00
6028;BME280;3042;43.194;27.646;2023-06-14T04:16:26;101049.88;;;33.32;100.00
6028;BME280;3042;43.194;27.646;2023-06-14T04:18:54;101091.78;;;34.12;99.42
6028;BME280;3042;43.194;27.646;2023-06-14T04:21:23;101053.66;;;34.22;96.47
6028;BME280;3042;43.194;27.646;2023-06-14T04:23:51;101104.56;;;34.60;94.59
6028;BME280;3042;43.194;27.646;2023-06-14T04:26:20;101099.53;;;34.89;93.85
6028;BME280;3042;43.194;27.646;2023-06-14T04:28:49;101115.31;;;34.95;92.43
6028;BME280;3042;43.194;27.646;2023-06-14T04:31:18;101109.47;;;35.04;90.30
6028;BME280;3042;43.194;27.646;2023-06-14T04:33:47;100742.63;;;32.59;88.18
6028;BME280;3042;43.194;27.646;2023-06-14T04:36:19;101135.31;;;34.89;89.12
6028;BME280;3042;43.194;27.646;2023-06-14T04:38:46;101143.28;;;34.74;89.17
6028;BME280;3042;43.194;27.646;2023-06-14T04:41:14;101134.91;;;34.97;88.08
6028;BME280;3042;43.194;27.646;2023-06-14T04:43:42;100879.03;;;34.10;86.97
6028;BME280;3042;43.194;27.646;2023-06-14T04:46:09;101108.34;;;36.24;85.45
6028;BME280;3042;43.194;27.646;2023-06-14T04:48:39;101113.00;;;36.52;84.04
6028;BME280;3042;43.194;27.646;2023-06-14T04:51:08;101101.31;;;37.14;81.54
6028;BME280;3042;43.194;27.646;2023-06-14T04:53:35;101092.09;;;36.88;80.80
6028;BME280;3042;43.194;27.646;2023-06-14T04:56:04;101124.03;;;36.94;80.15
6028;BME280;3042;43.194;27.646;2023-06-14T04:58:32;100990.03;;;36.23;79.27
6028;BME280;3042;43.194;27.646;2023-06-14T05:01:00;101081.44;;;36.24;79.40
6028;BME280;3042;43.194;27.646;2023-06-14T05:03:28;101035.59;;;35.46;80.25
6028;BME280;3042;43.194;27.646;2023-06-14T05:06:03;101152.66;;;35.69;81.11
6028;BME280;3042;43.194;27.646;2023-06-14T05:08:31;101143.13;;;35.46;82.34
6028;BME280;3042;43.194;27.646;2023-06-14T05:10:59;101149.13;;;36.01;81.47
6028;BME280;3042;43.194;27.646;2023-06-14T05:13:27;101140.31;;;36.62;80.96
6028;BME280;3042;43.194;27.646;2023-06-14T05:15:54;101120.66;;;37.21;79.17
6028;BME280;3042;43.194;27.646;2023-06-14T05:18:22;101071.75;;;37.55;77.39
6028;BME280;3042;43.194;27.646;2023-06-14T05:20:50;101106.84;;;38.38;75.17
6028;BME280;3042;43.194;27.646;2023-06-14T05:23:19;101113.81;;;38.82;72.89
6028;BME280;3042;43.194;27.646;2023-06-14T05:25:46;101112.22;;;38.93;72.36
6028;BME280;3042;43.194;27.646;2023-06-14T05:28:13;101102.81;;;39.11;71.63
6028;BME280;3042;43.194;27.646;2023-06-14T05:30:42;100760.78;;;37.13;70.67
6028;BME280;3042;43.194;27.646;2023-06-14T05:33:09;101130.50;;;39.15;71.24
6028;BME280;3042;43.194;27.646;2023-06-14T05:35:36;101130.72;;;39.12;70.34
6028;BME280;3042;43.194;27.646;2023-06-14T05:38:04;101117.00;;;39.40;70.36
6028;BME280;3042;43.194;27.646;2023-06-14T05:40:32;101122.09;;;39.45;69.85
6028;BME280;3042;43.194;27.646;2023-06-14T05:43:00;101025.81;;;39.30;69.39
6028;BME280;3042;43.194;27.646;2023-06-14T05:45:30;100699.78;;;37.78;68.13
6028;BME280;3042;43.194;27.646;2023-06-14T05:51:30;101101.81;;;40.97;65.40
6028;BME280;3042;43.194;27.646;2023-06-14T05:53:57;100651.47;;;38.12;64.51
6028;BME280;3042;43.194;27.646;2023-06-14T05:56:26;101150.88;;;40.93;64.77
6028;BME280;3042;43.194;27.646;2023-06-14T05:58:54;101153.22;;;39.89;65.99
6028;BME280;3042;43.194;27.646;2023-06-14T06:01:21;101162.34;;;39.88;67.03
6028;BME280;3042;43.194;27.646;2023-06-14T06:03:48;100841.44;;;38.49;66.52
6028;BME280;3042;43.194;27.646;2023-06-14T06:06:16;101130.50;;;40.88;65.55
6028;BME280;3042;43.194;27.646;2023-06-14T06:08:43;101145.56;;;40.68;64.98
6028;BME280;3042;43.194;27.646;2023-06-14T06:11:10;101121.84;;;41.29;64.40
6028;BME280;3042;43.194;27.646;2023-06-14T06:13:39;101121.75;;;41.31;63.49
6028;BME280;3042;43.194;27.646;2023-06-14T06:16:08;100751.94;;;39.15;63.85
6028;BME280;3042;43.194;27.646;2023-06-14T06:18:41;101150.13;;;41.72;62.41
6028;BME280;3042;43.194;27.646;2023-06-14T06:21:10;100836.09;;;40.29;61.65
6028;BME280;3042;43.194;27.646;2023-06-14T06:23:37;101104.94;;;42.48;61.15
6028;BME280;3042;43.194;27.646;2023-06-14T06:26:04;101107.00;;;42.77;61.02
6028;BME280;3042;43.194;27.646;2023-06-14T06:28:32;101029.63;;;42.28;60.03
6028;BME280;3042;43.194;27.646;2023-06-14T06:31:00;101065.03;;;42.37;58.85
6028;BME280;3042;43.194;27.646;2023-06-14T06:33:36;100790.97;;;40.96;58.59
6028;BME280;3042;43.194;27.646;2023-06-14T06:36:05;101134.28;;;42.22;57.87
6028;BME280;3042;43.194;27.646;2023-06-14T06:38:32;101102.09;;;41.16;59.29
6028;BME280;3042;43.194;27.646;2023-06-14T06:40:59;101158.63;;;41.56;59.92
6028;BME280;3042;43.194;27.646;2023-06-14T06:43:27;101134.72;;;41.61;59.19
6028;BME280;3042;43.194;27.646;2023-06-14T06:45:54;101090.78;;;41.22;59.00
6028;BME280;3042;43.194;27.646;2023-06-14T06:48:22;101102.16;;;40.08;60.37
6028;BME280;3042;43.194;27.646;2023-06-14T06:50:50;101223.63;;;38.83;61.61
6028;BME280;3042;43.194;27.646;2023-06-14T06:53:18;101139.53;;;36.90;64.03
6028;BME280;3042;43.194;27.646;2023-06-14T06:55:45;100926.81;;;33.84;66.88
6028;BME280;3042;43.194;27.646;2023-06-14T06:58:14;101170.59;;;34.09;71.70
6028;BME280;3042;43.194;27.646;2023-06-14T07:00:41;101203.78;;;33.67;75.44
6028;BME280;3042;43.194;27.646;2023-06-14T07:03:09;101244.22;;;33.40;78.44
6028;BME280;3042;43.194;27.646;2023-06-14T07:05:37;101256.38;;;33.07;83.27
6028;BME280;3042;43.194;27.646;2023-06-14T07:08:05;101072.16;;;31.83;86.84
6028;BME280;3042;43.194;27.646;2023-06-14T07:10:32;101243.66;;;33.12;89.14
6028;BME280;3042;43.194;27.646;2023-06-14T07:13:00;100921.25;;;31.47;87.13
6028;BME280;3042;43.194;27.646;2023-06-14T07:15:27;101244.75;;;33.28;87.07
6028;BME280;3042;43.194;27.646;2023-06-14T07:17:54;101172.75;;;32.98;86.37
6028;BME280;3042;43.194;27.646;2023-06-14T07:20:25;101217.75;;;33.74;86.96
6028;BME280;3042;43.194;27.646;2023-06-14T07:22:54;101158.34;;;33.23;86.91
6028;BME280;3042;43.194;27.646;2023-06-14T07:25:21;101169.88;;;33.25;85.73
6028;BME280;3042;43.194;27.646;2023-06-14T07:27:48;101241.13;;;33.29;85.39
6028;BME280;3042;43.194;27.646;2023-06-14T07:30:16;101235.09;;;33.45;86.37
6028;BME280;3042;43.194;27.646;2023-06-14T07:32:43;101241.25;;;33.26;85.88
6028;BME280;3042;43.194;27.646;2023-06-14T07:35:10;101190.22;;;33.09;87.71
6028;BME280;3042;43.194;27.646;2023-06-14T07:37:37;101234.16;;;33.25;88.47
6028;BME280;3042;43.194;27.646;2023-06-14T07:40:10;101234.28;;;33.22;90.22
6028;BME280;3042;43.194;27.646;2023-06-14T07:42:38;101132.28;;;32.84;90.10
6028;BME280;3042;43.194;27.646;2023-06-14T07:45:06;101165.72;;;32.96;87.04
6028;BME280;3042;43.194;27.646;2023-06-14T07:47:34;101230.19;;;33.34;86.10
6028;BME280;3042;43.194;27.646;2023-06-14T07:50:01;101228.31;;;33.15;86.81
6028;BME280;3042;43.194;27.646;2023-06-14T07:52:28;101251.47;;;32.50;89.05
6028;BME280;3042;43.194;27.646;2023-06-14T07:54:56;101236.66;;;32.86;89.47
6028;BME280;3042;43.194;27.646;2023-06-14T07:57:25;101217.19;;;33.04;88.37
6028;BME280;3042;43.194;27.646;2023-06-14T07:59:52;101202.22;;;32.54;88.26
6028;BME280;3042;43.194;27.646;2023-06-14T08:02:19;100952.78;;;31.38;88.28
6028;BME280;3042;43.194;27.646;2023-06-14T08:04:46;101238.22;;;32.91;89.55
6028;BME280;3042;43.194;27.646;2023-06-14T08:07:14;101175.81;;;32.45;89.20
6028;BME280;3042;43.194;27.646;2023-06-14T08:09:41;101242.88;;;32.86;88.98
6028;BME280;3042;43.194;27.646;2023-06-14T08:12:09;100898.53;;;30.65;88.62
6028;BME280;3042;43.194;27.646;2023-06-14T08:14:39;101216.63;;;32.74;90.70
6028;BME280;3042;43.194;27.646;2023-06-14T08:17:06;101228.16;;;32.96;90.37
6028;BME280;3042;43.194;27.646;2023-06-14T08:19:33;101209.63;;;33.14;88.66
6028;BME280;3042;43.194;27.646;2023-06-14T08:22:01;101188.59;;;33.05;88.15
6028;BME280;3042;43.194;27.646;2023-06-14T08:24:29;101247.88;;;32.95;90.99
6028;BME280;3042;43.194;27.646;2023-06-14T08:26:56;101200.66;;;32.71;87.98
6028;BME280;3042;43.194;27.646;2023-06-14T08:29:26;101236.56;;;33.11;90.48
6028;BME280;3042;43.194;27.646;2023-06-14T08:31:58;101209.50;;;33.17;89.52
6028;BME280;3042;43.194;27.646;2023-06-14T08:34:25;101228.41;;;33.34;89.21
6028;BME280;3042;43.194;27.646;2023-06-14T08:36:52;101220.91;;;33.42;89.96
6028;BME280;3042;43.194;27.646;2023-06-14T08:39:20;101210.72;;;33.30;86.33
6028;BME280;3042;43.194;27.646;2023-06-14T08:41:47;101165.56;;;33.41;87.47
6028;BME280;3042;43.194;27.646;2023-06-14T08:44:16;101204.81;;;33.42;87.32
6028;BME280;3042;43.194;27.646;2023-06-14T08:46:44;101225.19;;;33.47;87.68
6028;BME280;3042;43.194;27.646;2023-06-14T08:49:16;101037.38;;;32.50;87.80
6028;BME280;3042;43.194;27.646;2023-06-14T08:51:43;101233.06;;;33.09;88.08
6028;BME280;3042;43.194;27.646;2023-06-14T08:54:13;101240.88;;;32.91;91.60
6028;BME280;3042;43.194;27.646;2023-06-14T08:56:41;101034.56;;;31.87;90.97
6028;BME280;3042;43.194;27.646;2023-06-14T08:59:09;101234.94;;;33.07;92.97
6028;BME280;3042;43.194;27.646;2023-06-14T09:01:37;101221.47;;;33.08;90.52
6028;BME280;3042;43.194;27.646;2023-06-14T09:04:04;101203.34;;;33.35;90.08
6028;BME280;3042;43.194;27.646;2023-06-14T09:06:33;101208.44;;;33.21;90.56
6028;BME280;3042;43.194;27.646;2023-06-14T09:09:02;101095.31;;;32.50;89.89
6028;BME280;3042;43.194;27.646;2023-06-14T09:11:30;100868.94;;;30.47;90.38
6028;BME280;3042;43.194;27.646;2023-06-14T09:13:58;101242.31;;;32.32;88.94
6028;BME280;3042;43.194;27.646;2023-06-14T09:16:25;101237.53;;;32.17;90.12
6028;BME280;3042;43.194;27.646;2023-06-14T09:18:54;101223.59;;;32.09;91.59
6028;BME280;3042;43.194;27.646;2023-06-14T09:21:21;101244.97;;;31.84;93.88
6028;BME280;3042;43.194;27.646;2023-06-14T09:23:50;101160.91;;;31.44;96.45
6028;BME280;3042;43.194;27.646;2023-06-14T09:26:18;101152.53;;;31.54;96.51
6028;BME280;3042;43.194;27.646;2023-06-14T09:28:47;101077.28;;;31.17;96.94
6028;BME280;3042;43.194;27.646;2023-06-14T09:31:17;101209.81;;;32.20;99.59
6028;BME280;3042;43.194;27.646;2023-06-14T09:33:46;101207.03;;;32.23;94.67
6028;BME280;3042;43.194;27.646;2023-06-14T09:36:17;101155.84;;;31.85;95.04
6028;BME280;3042;43.194;27.646;2023-06-14T09:38:53;101194.09;;;32.57;96.67
6028;BME280;3042;43.194;27.646;2023-06-14T09:41:30;101203.63;;;32.65;94.27
6028;BME280;3042;43.194;27.646;2023-06-14T09:44:00;101184.50;;;32.74;92.63
6028;BME280;3042;43.194;27.646;2023-06-14T09:46:29;101195.31;;;32.71;90.59
6028;BME280;3042;43.194;27.646;2023-06-14T09:48:57;101197.44;;;32.63;91.06
6028;BME280;3042;43.194;27.646;2023-06-14T09:51:25;101109.94;;;32.65;94.08
6028;BME280;3042;43.194;27.646;2023-06-14T09:53:58;101178.81;;;32.82;92.41
6028;BME280;3042;43.194;27.646;2023-06-14T09:56:27;101187.09;;;32.97;90.30
6028;BME280;3042;43.194;27.646;2023-06-14T09:58:56;101175.13;;;32.84;91.28
6028;BME280;3042;43.194;27.646;2023-06-14T10:01:25;101168.41;;;33.18;91.04
6028;BME280;3042;43.194;27.646;2023-06-14T10:03:55;101178.97;;;33.21;92.18
6028;BME280;3042;43.194;27.646;2023-06-14T10:06:24;101161.94;;;33.42;90.49
6028;BME280;3042;43.194;27.646;2023-06-14T10:08:56;101156.97;;;33.74;89.06
6028;BME280;3042;43.194;27.646;2023-06-14T10:11:26;101176.56;;;33.35;90.36
6028;BME280;3042;43.194;27.646;2023-06-14T10:13:55;101175.59;;;33.36;90.56
6028;BME280;3042;43.194;27.646;2023-06-14T10:16:27;101181.59;;;33.22;91.27
6028;BME280;3042;43.194;27.646;2023-06-14T10:19:02;101170.31;;;33.35;90.87
6028;BME280;3042;43.194;27.646;2023-06-14T10:21:37;101181.84;;;33.16;88.91
6028;BME280;3042;43.194;27.646;2023-06-14T10:24:13;101184.06;;;33.07;89.32
6028;BME280;3042;43.194;27.646;2023-06-14T10:26:50;101182.84;;;33.14;88.65
6028;BME280;3042;43.194;27.646;2023-06-14T10:29:18;101189.56;;;33.02;84.94
6028;BME280;3042;43.194;27.646;2023-06-14T10:31:47;101181.09;;;33.13;88.74
6028;BME280;3042;43.194;27.646;2023-06-14T10:34:22;101136.88;;;33.03;87.36
6028;BME280;3042;43.194;27.646;2023-06-14T10:37:00;101164.41;;;33.47;89.12
6028;BME280;3042;43.194;27.646;2023-06-14T10:39:30;101161.16;;;33.61;87.30
6028;BME280;3042;43.194;27.646;2023-06-14T10:41:57;101112.84;;;33.42;84.25
6028;BME280;3042;43.194;27.646;2023-06-14T10:44:40;100990.84;;;32.94;84.20
6028;BME280;3042;43.194;27.646;2023-06-14T10:47:08;101158.56;;;33.78;85.52
6028;BME280;3042;43.194;27.646;2023-06-14T10:49:41;101178.56;;;33.30;83.18
6028;BME280;3042;43.194;27.646;2023-06-14T10:52:10;101113.72;;;33.22;83.95
6028;BME280;3042;43.194;27.646;2023-06-14T10:55:04;101179.97;;;33.18;85.23
6028;BME280;3042;43.194;27.646;2023-06-14T10:57:37;100999.69;;;32.34;87.15
6028;BME280;3042;43.194;27.646;2023-06-14T11:00:07;101180.03;;;33.37;84.96
6028;BME280;3042;43.194;27.646;2023-06-14T11:03:09;101194.94;;;33.02;84.68
6028;BME280;3042;43.194;27.646;2023-06-14T11:05:48;101182.72;;;33.17;84.12
6028;BME280;3042;43.194;27.646;2023-06-14T11:11:36;101167.44;;;33.39;81.24
6028;BME280;3042;43.194;27.646;2023-06-14T11:14:04;101150.44;;;33.61;79.76
6028;BME280;3042;43.194;27.646;2023-06-14T11:16:32;101136.81;;;33.84;81.31
6028;BME280;3042;43.194;27.646;2023-06-14T11:19:00;101130.16;;;33.93;80.61
6028;BME280;3042;43.194;27.646;2023-06-14T11:21:28;101148.81;;;33.57;81.22
6028;BME280;3042;43.194;27.646;2023-06-14T11:23:59;100990.84;;;32.32;78.26
6028;BME280;3042;43.194;27.646;2023-06-14T11:26:26;101163.81;;;33.40;78.95
6028;BME280;3042;43.194;27.646;2023-06-14T11:28:59;101163.50;;;33.28;80.60
6028;BME280;3042;43.194;27.646;2023-06-14T11:31:27;101157.53;;;33.41;80.64
6028;BME280;3042;43.194;27.646;2023-06-14T11:33:55;101157.78;;;33.35;80.74
6028;BME280;3042;43.194;27.646;2023-06-14T11:36:23;101156.72;;;33.39;80.75
6028;BME280;3042;43.194;27.646;2023-06-14T11:38:58;101146.38;;;33.71;80.43
6028;BME280;3042;43.194;27.646;2023-06-14T11:41:32;101121.19;;;34.13;80.17
6028;BME280;3042;43.194;27.646;2023-06-14T11:44:02;101128.72;;;34.05;80.01
6028;BME280;3042;43.194;27.646;2023-06-14T11:46:29;101124.81;;;34.12;79.58
6028;BME280;3042;43.194;27.646;2023-06-14T11:48:57;101137.34;;;33.93;78.04
6028;BME280;3042;43.194;27.646;2023-06-14T11:51:24;101123.34;;;34.05;76.82
6028;BME280;3042;43.194;27.646;2023-06-14T11:53:51;101119.72;;;34.06;76.22
6028;BME280;3042;43.194;27.646;2023-06-14T11:56:19;101096.53;;;33.67;75.11
6028;BME280;3042;43.194;27.646;2023-06-14T11:58:46;100941.78;;;33.14;75.02
6028;BME280;3042;43.194;27.646;2023-06-14T12:01:16;101028.66;;;34.03;73.42
6028;BME280;3042;43.194;27.646;2023-06-14T12:03:48;101079.75;;;34.38;71.67
6028;BME280;3042;43.194;27.646;2023-06-14T12:06:15;101097.44;;;34.42;72.77
6028;BME280;3042;43.194;27.646;2023-06-14T12:08:44;101094.19;;;34.35;73.67
6028;BME280;3042;43.194;27.646;2023-06-14T12:11:15;101032.84;;;34.09;75.38
6028;BME280;3042;43.194;27.646;2023-06-14T12:13:43;101125.06;;;34.06;75.78
6028;BME280;3042;43.194;27.646;2023-06-14T12:16:11;101116.09;;;34.07;75.80
6028;BME280;3042;43.194;27.646;2023-06-14T12:18:41;100939.47;;;33.06;75.37
6028;BME280;3042;43.194;27.646;2023-06-14T12:21:09;101104.63;;;34.22;75.60
6028;BME280;3042;43.194;27.646;2023-06-14T12:23:43;101100.53;;;33.77;74.24
6028;BME280;3042;43.194;27.646;2023-06-14T12:26:13;101102.97;;;34.01;74.99
6028;BME280;3042;43.194;27.646;2023-06-14T12:28:41;101089.13;;;34.29;74.85
6028;BME280;3042;43.194;27.646;2023-06-14T12:31:09;101079.19;;;34.48;73.08
6028;BME280;3042;43.194;27.646;2023-06-14T12:33:37;101005.22;;;34.60;73.06
6028;BME280;3042;43.194;27.646;2023-06-14T12:36:07;101048.03;;;34.98;73.34
6028;BME280;3042;43.194;27.646;2023-06-14T12:38:35;101049.31;;;34.74;84.29
6028;BME280;3042;43.194;27.646;2023-06-14T12:41:02;101109.72;;;34.29;87.46
6028;BME280;3042;43.194;27.646;2023-06-14T12:43:29;101128.41;;;33.92;92.13
6028;BME280;3042;43.194;27.646;2023-06-14T12:45:56;101141.97;;;33.50;96.40
6028;BME280;3042;43.194;27.646;2023-06-14T12:48:23;101131.81;;;33.58;99.82
6028;BME280;3042;43.194;27.646;2023-06-14T12:50:53;100986.25;;;32.56;100.00
6028;BME280;3042;43.194;27.646;2023-06-14T12:53:21;101127.63;;;33.51;100.00
6028;BME280;3042;43.194;27.646;2023-06-14T12:55:49;101131.94;;;33.34;100.00
6028;BME280;3042;43.194;27.646;2023-06-14T12:58:16;101139.19;;;33.12;100.00
6028;BME280;3042;43.194;27.646;2023-06-14T13:00:45;101143.72;;;33.10;100.00
6028;BME280;3042;43.194;27.646;2023-06-14T13:03:12;101144.88;;;32.82;100.00
6028;BME280;3042;43.194;27.646;2023-06-14T13:05:39;101125.59;;;33.37;100.00
6028;BME280;3042;43.194;27.646;2023-06-14T13:08:08;101146.25;;;33.13;100.00
6028;BME280;3042;43.194;27.646;2023-06-14T13:10:37;101128.72;;;32.85;100.00
6028;BME280;3042;43.194;27.646;2023-06-14T13:13:04;101154.34;;;32.91;100.00
6028;BME280;3042;43.194;27.646;2023-06-14T13:15:33;101150.13;;;32.85;100.00
6028;BME280;3042;43.194;27.646;2023-06-14T13:18:00;101161.22;;;32.76;100.00
6028;BME280;3042;43.194;27.646;2023-06-14T13:20:28;101130.00;;;32.31;100.00
6028;BME280;3042;43.194;27.646;2023-06-14T13:22:55;101156.09;;;32.70;100.00
6028;BME280;3042;43.194;27.646;2023-06-14T13:25:23;101150.22;;;32.82;100.00